Sagar Sampada — VWXS — position and weather

sailwx.info

Track history (hours):
 
Tides and Currents Weather Stations Pressure Air Temp Water Temp Dewpoint Dewpoint Depression Visibility Wind Speed Wind Dir Waves Ship Positions

Oceanographic research ship Sagar Sampada (India)

Detailed information on ship capabilities available from University of Delaware's Ocean Information Center.

Last reported at 2019-Jul-25 03:09 UTC. Time now 2019-Aug-24 22:33 UTC.
Position N 11°24' E 092°42'.
Warning: this ship's position is 30 days out of date.

Type: Other ship. MMSI: 419323000.

Wind from 210 at 12 knots

Air temperature 29.3 ° C

Date/timePositionNaut miles runAvg speedWind from/ knotsBaromVisibWave heightAir tempDewpointWater temp
2019-Jul-25 03:09N 11°24' E 092°42'24 6.9 210 / 12 29.3
2019-Jul-24 23:39N 11°18' E 092°18'17 6.7 230 / 23
2019-Jul-24 21:09N 11°30' E 092°06'13 4.5 240 / 23
2019-Jul-24 18:09N 11°42' E 092°00'8 2.8 240 / 19
2019-Jul-24 15:09N 11°48' E 092°06'6 1.7 210 / 19
2019-Jul-24 11:39N 11°48' E 092°12'6 1.1 220 / 19 29.6
2019-Jul-24 06:09N 11°48' E 092°18'6 1.0 210 / 19 30.0
2019-Jul-24 00:09N 11°54' E 092°18'6 2.0 190 / 19 29.5
2019-Jul-23 21:09N 11°48' E 092°18'13 4.5 200 / 19 29.5
2019-Jul-23 18:09N 12°00' E 092°24'17 5.6 180 / 19
2019-Jul-23 15:09N 12°12' E 092°36'13 4.5 220 / 171006.6 29.6
2019-Jul-23 12:09N 12°24' E 092°30'17 5.6 220 / 211004.6 29.5
2019-Jul-23 09:09N 12°36' E 092°18'0 0.0 220 / 19 29.7
2019-Jul-23 06:09N 12°36' E 092°18'6 2.0 200 / 23 29.2
2019-Jul-23 03:09N 12°30' E 092°18'6 2.0 190 / 14 29.2
2019-Jul-23 00:09N 12°30' E 092°12'12 4.0 190 / 14 29.1
2019-Jul-22 21:09N 12°42' E 092°12'12 4.0 190 / 16 27.0
2019-Jul-22 18:09N 12°54' E 092°12'12 4.0 210 / 14 29.1
2019-Jul-22 15:09N 13°06' E 092°12'17 5.6 200 / 161005.1 29.7
2019-Jul-22 12:09N 13°18' E 092°24'17 2.8 170 / 12 27.9
2019-Jul-22 06:09N 13°30' E 092°36'6 1.9 180 / 61004.1 29.8
2019-Jul-22 03:09N 13°30' E 092°30'6 1.9 170 / 41004.8 29.8
2019-Jul-22 00:09N 13°30' E 092°24'6 1.7 180 / 14
2019-Jul-21 20:39N 13°30' E 092°30'0 0.0 140 / 14
2019-Jul-21 14:39N 13°30' E 092°30'12 3.9 190 / 14 28.6
2019-Jul-21 11:39N 13°30' E 092°18'2510.0 200 / 101002.7 28.3
2019-Jul-21 09:09N 13°12' E 092°00'19 6.2 240 / 61002.9 28.9
2019-Jul-21 06:09N 13°06' E 091°42'23 7.8 240 / 4
2019-Jul-21 03:09N 13°06' E 091°18'30 8.5 050 / 2
2019-Jul-20 23:39N 13°12' E 090°48'19 7.4 340 / 4
2019-Jul-20 21:09N 13°18' E 090°30'23 7.8 220 / 6 28.8
2019-Jul-20 18:09N 13°18' E 090°06'24 8.0 220 / 101003.9 29.1
2019-Jul-20 15:09N 13°24' E 089°42'23 7.8 200 / 16
2019-Jul-20 12:09N 13°24' E 089°18'23 7.8 190 / 101002.3 29.9
2019-Jul-20 09:09N 13°24' E 088°54'23 7.8 180 / 81002.4 30.5
2019-Jul-20 06:09N 13°24' E 088°30'23 7.8 170 / 81003.0 30.0
2019-Jul-20 03:09N 13°24' E 088°06'18 5.8 190 / 121003.3 30.3
2019-Jul-20 00:09N 13°24' E 087°48'24 8.0 200 / 12
2019-Jul-19 21:09N 13°18' E 087°24'41 6.8 210 / 14
2019-Jul-19 15:09N 13°18' E 086°42'23 7.8 200 / 10
2019-Jul-19 12:09N 13°18' E 086°18'18 5.8 230 / 8999.5 29.8
2019-Jul-19 09:09N 13°18' E 086°00'23 6.7 270 / 10999.9 30.7
2019-Jul-19 05:39N 13°18' E 085°36'18 7.0 230 / 17
2019-Jul-19 03:09N 13°18' E 085°18'23 7.8 220 / 17
2019-Jul-19 00:09N 13°18' E 084°54'41 6.9 210 / 17
2019-Jul-18 18:09N 13°12' E 084°12'18 5.8 210 / 14
2019-Jul-18 15:09N 13°12' E 083°54'23 7.8 220 / 6
2019-Jul-18 12:09N 13°12' E 083°30'23 7.8 270 / 2998.8 29.9
2019-Jul-18 09:09N 13°12' E 083°06'29 9.7 330 / 6999.6 29.8
2019-Jul-18 06:09N 13°12' E 082°36'23 7.8 270 / 101001.5 31.0
2019-Jul-18 03:09N 13°12' E 082°12'29 9.7 250 / 171001.3 30.4
2019-Jul-18 00:09N 13°12' E 081°42'24 8.0 230 / 21
2019-Jul-17 21:09N 13°06' E 081°18'23 7.8 220 / 17
2019-Jul-17 18:09N 13°06' E 080°54'23 7.8 200 / 17
2019-Jul-17 15:09N 13°06' E 080°30'12 3.3 180 / 14
2019-Jul-17 11:39N 13°06' E 080°18'0 0.0 110 / 4 29.5
2019-Jul-17 09:09N 13°06' E 080°18'0 0.0 120 / 41001.3 33.7
2019-Jul-17 06:09N 13°06' E 080°18'0 0.0 210 / 21003.2 31.6
2019-Jul-16 18:09N 13°06' E 080°18'0 0.0 220
2019-Jul-16 15:09N 13°06' E 080°18'0 0.0 170 / 2
2019-Jul-16 11:39N 13°06' E 080°18'0 0.0 160 / 4 31.3
2019-Jul-16 06:09N 13°06' E 080°18'0 0.0 260 / 81004.6 33.5
2019-Jul-16 03:09N 13°06' E 080°18'0 0.0 170 / 2
2019-Jul-16 00:09N 13°06' E 080°18'0 0.0 180 / 2
2019-Jul-15 20:39N 13°06' E 080°18'0 0.0 190
2019-Jul-15 18:09N 13°06' E 080°18'0 0.0 190 / 2
2019-Jul-15 15:09N 13°06' E 080°18'0 0.0 260 / 10
2019-Jul-15 12:09N 13°06' E 080°18'0 0.0 100 / 61001.7 31.0
2019-Jul-15 09:09N 13°06' E 080°18'6 1.9 120 / 141002.3 29.9
2019-Jul-15 06:09N 13°06' E 080°24'   170 / 12 28.4
Track history (hours):
 
Tides and Currents Weather Stations Pressure Air Temp Water Temp Dewpoint Dewpoint Depression Visibility Wind Speed Wind Dir Waves Ship Positions

Oceanographic research ship Sagar Sampada (India)

Detailed information on ship capabilities available from University of Delaware's Ocean Information Center.

Last reported at 2019-Jul-25 03:09 UTC. Time now 2019-Aug-24 22:33 UTC.
Position N 11°24' E 092°42'.
Warning: this ship's position is 30 days out of date.

Type: Other ship. MMSI: 419323000.

Wind from 210 at 12 knots

Air temperature 29.3 ° C

Date/timePositionNaut miles runAvg speedWind from/ knotsBaromVisibWave heightAir tempDewpointWater temp
2019-Jul-25 03:09N 11°24' E 092°42'24 6.9 210 / 12 29.3
2019-Jul-24 23:39N 11°18' E 092°18'17 6.7 230 / 23
2019-Jul-24 21:09N 11°30' E 092°06'13 4.5 240 / 23
2019-Jul-24 18:09N 11°42' E 092°00'8 2.8 240 / 19
2019-Jul-24 15:09N 11°48' E 092°06'6 1.7 210 / 19
2019-Jul-24 11:39N 11°48' E 092°12'6 1.1 220 / 19 29.6
2019-Jul-24 06:09N 11°48' E 092°18'6 1.0 210 / 19 30.0
2019-Jul-24 00:09N 11°54' E 092°18'6 2.0 190 / 19 29.5
2019-Jul-23 21:09N 11°48' E 092°18'13 4.5 200 / 19 29.5
2019-Jul-23 18:09N 12°00' E 092°24'17 5.6 180 / 19
2019-Jul-23 15:09N 12°12' E 092°36'13 4.5 220 / 171006.6 29.6
2019-Jul-23 12:09N 12°24' E 092°30'17 5.6 220 / 211004.6 29.5
2019-Jul-23 09:09N 12°36' E 092°18'0 0.0 220 / 19 29.7
2019-Jul-23 06:09N 12°36' E 092°18'6 2.0 200 / 23 29.2
2019-Jul-23 03:09N 12°30' E 092°18'6 2.0 190 / 14 29.2
2019-Jul-23 00:09N 12°30' E 092°12'12 4.0 190 / 14 29.1
2019-Jul-22 21:09N 12°42' E 092°12'12 4.0 190 / 16 27.0
2019-Jul-22 18:09N 12°54' E 092°12'12 4.0 210 / 14 29.1
2019-Jul-22 15:09N 13°06' E 092°12'17 5.6 200 / 161005.1 29.7
2019-Jul-22 12:09N 13°18' E 092°24'17 2.8 170 / 12 27.9
2019-Jul-22 06:09N 13°30' E 092°36'6 1.9 180 / 61004.1 29.8
2019-Jul-22 03:09N 13°30' E 092°30'6 1.9 170 / 41004.8 29.8
2019-Jul-22 00:09N 13°30' E 092°24'6 1.7 180 / 14
2019-Jul-21 20:39N 13°30' E 092°30'0 0.0 140 / 14
2019-Jul-21 14:39N 13°30' E 092°30'12 3.9 190 / 14 28.6
2019-Jul-21 11:39N 13°30' E 092°18'2510.0 200 / 101002.7 28.3
2019-Jul-21 09:09N 13°12' E 092°00'19 6.2 240 / 61002.9 28.9
2019-Jul-21 06:09N 13°06' E 091°42'23 7.8 240 / 4
2019-Jul-21 03:09N 13°06' E 091°18'30 8.5 050 / 2
2019-Jul-20 23:39N 13°12' E 090°48'19 7.4 340 / 4
2019-Jul-20 21:09N 13°18' E 090°30'23 7.8 220 / 6 28.8
2019-Jul-20 18:09N 13°18' E 090°06'24 8.0 220 / 101003.9 29.1
2019-Jul-20 15:09N 13°24' E 089°42'23 7.8 200 / 16
2019-Jul-20 12:09N 13°24' E 089°18'23 7.8 190 / 101002.3 29.9
2019-Jul-20 09:09N 13°24' E 088°54'23 7.8 180 / 81002.4 30.5
2019-Jul-20 06:09N 13°24' E 088°30'23 7.8 170 / 81003.0 30.0
2019-Jul-20 03:09N 13°24' E 088°06'18 5.8 190 / 121003.3 30.3
2019-Jul-20 00:09N 13°24' E 087°48'24 8.0 200 / 12
2019-Jul-19 21:09N 13°18' E 087°24'41 6.8 210 / 14
2019-Jul-19 15:09N 13°18' E 086°42'23 7.8 200 / 10
2019-Jul-19 12:09N 13°18' E 086°18'18 5.8 230 / 8999.5 29.8
2019-Jul-19 09:09N 13°18' E 086°00'23 6.7 270 / 10999.9 30.7
2019-Jul-19 05:39N 13°18' E 085°36'18 7.0 230 / 17
2019-Jul-19 03:09N 13°18' E 085°18'23 7.8 220 / 17
2019-Jul-19 00:09N 13°18' E 084°54'41 6.9 210 / 17
2019-Jul-18 18:09N 13°12' E 084°12'18 5.8 210 / 14
2019-Jul-18 15:09N 13°12' E 083°54'23 7.8 220 / 6
2019-Jul-18 12:09N 13°12' E 083°30'23 7.8 270 / 2998.8 29.9
2019-Jul-18 09:09N 13°12' E 083°06'29 9.7 330 / 6999.6 29.8
2019-Jul-18 06:09N 13°12' E 082°36'23 7.8 270 / 101001.5 31.0
2019-Jul-18 03:09N 13°12' E 082°12'29 9.7 250 / 171001.3 30.4
2019-Jul-18 00:09N 13°12' E 081°42'24 8.0 230 / 21
2019-Jul-17 21:09N 13°06' E 081°18'23 7.8 220 / 17
2019-Jul-17 18:09N 13°06' E 080°54'23 7.8 200 / 17
2019-Jul-17 15:09N 13°06' E 080°30'12 3.3 180 / 14
2019-Jul-17 11:39N 13°06' E 080°18'0 0.0 110 / 4 29.5
2019-Jul-17 09:09N 13°06' E 080°18'0 0.0 120 / 41001.3 33.7
2019-Jul-17 06:09N 13°06' E 080°18'0 0.0 210 / 21003.2 31.6
2019-Jul-16 18:09N 13°06' E 080°18'0 0.0 220
2019-Jul-16 15:09N 13°06' E 080°18'0 0.0 170 / 2
2019-Jul-16 11:39N 13°06' E 080°18'0 0.0 160 / 4 31.3
2019-Jul-16 06:09N 13°06' E 080°18'0 0.0 260 / 81004.6 33.5
2019-Jul-16 03:09N 13°06' E 080°18'0 0.0 170 / 2
2019-Jul-16 00:09N 13°06' E 080°18'0 0.0 180 / 2
2019-Jul-15 20:39N 13°06' E 080°18'0 0.0 190
2019-Jul-15 18:09N 13°06' E 080°18'0 0.0 190 / 2
2019-Jul-15 15:09N 13°06' E 080°18'0 0.0 260 / 10
2019-Jul-15 12:09N 13°06' E 080°18'0 0.0 100 / 61001.7 31.0
2019-Jul-15 09:09N 13°06' E 080°18'6 1.9 120 / 141002.3 29.9
2019-Jul-15 06:09N 13°06' E 080°24'   170 / 12 28.4

Dump ship's entire track history